Time;durP1;ratioP1;P1;durP2;ratioP2;P2;SDS_P1;SDS_P2;PMS_P1;PMS_P2;Temp;Humidity;BMP_temperature;BMP_pressure;BME280_temperature;BME280_humidity;BME280_pressure;Samples;Min_cycle;Max_cycle;Signal;HPM_P1;HPM_P2
2021/09/11 00:00:45;;;;;;;30.67;28.87;;;21.00;75.20;;;;;;5060940;28;20469;-72
2021/09/11 00:03:13;;;;;;;31.10;29.20;;;21.00;75.40;;;;;;5059102;28;20561;-72
2021/09/11 00:05:40;;;;;;;30.37;28.57;;;21.00;75.40;;;;;;5065631;28;20472;-72
2021/09/11 00:08:07;;;;;;;31.23;29.43;;;21.00;75.50;;;;;;5064608;28;20457;-72
2021/09/11 00:10:34;;;;;;;31.00;29.10;;;20.90;75.80;;;;;;5065542;28;20466;-72
2021/09/11 00:13:01;;;;;;;31.70;29.70;;;20.90;76.20;;;;;;5061087;28;20466;-72
2021/09/11 00:15:32;;;;;;;31.40;29.50;;;20.90;76.30;;;;;;5063357;28;20576;-72
2021/09/11 00:17:59;;;;;;;31.40;29.60;;;20.80;76.70;;;;;;5062748;28;20454;-71
2021/09/11 00:20:28;;;;;;;31.17;29.37;;;20.80;76.70;;;;;;5065205;28;20473;-72
2021/09/11 00:22:56;;;;;;;31.63;29.80;;;20.80;76.70;;;;;;5064959;28;21082;-72
2021/09/11 00:25:23;;;;;;;31.50;29.60;;;20.80;76.90;;;;;;5064824;28;20458;-72
2021/09/11 00:27:50;;;;;;;31.27;29.47;;;20.70;77.20;;;;;;5065266;28;20497;-72
2021/09/11 00:30:17;;;;;;;31.30;29.47;;;20.70;77.40;;;;;;5067027;28;20478;-72
2021/09/11 00:32:44;;;;;;;31.17;29.30;;;20.60;77.70;;;;;;5069752;28;20466;-72
2021/09/11 00:35:14;;;;;;;31.33;29.43;;;20.60;77.70;;;;;;5063773;28;20473;-72
2021/09/11 00:37:43;;;;;;;31.30;29.40;;;20.60;77.90;;;;;;5064940;28;20458;-72
2021/09/11 00:40:11;;;;;;;31.57;29.67;;;20.60;77.70;;;;;;5064997;28;20561;-72
2021/09/11 00:42:40;;;;;;;31.70;29.90;;;20.60;77.70;;;;;;5068230;28;20460;-72
2021/09/11 00:45:09;;;;;;;32.30;30.20;;;20.50;77.80;;;;;;5060481;28;20506;-72
2021/09/11 00:47:36;;;;;;;32.50;30.50;;;20.50;78.10;;;;;;5070903;28;20568;-72
2021/09/11 00:50:04;;;;;;;31.70;29.80;;;20.50;78.10;;;;;;5063051;28;20489;-72
2021/09/11 00:52:31;;;;;;;31.40;29.60;;;20.40;78.20;;;;;;5072251;28;20939;-71
2021/09/11 00:54:59;;;;;;;31.00;29.10;;;20.50;78.10;;;;;;5062394;28;20474;-70
2021/09/11 00:57:28;;;;;;;31.50;29.70;;;20.40;78.00;;;;;;5064079;28;20473;-71
2021/09/11 00:59:55;;;;;;;31.10;29.30;;;20.40;78.10;;;;;;5063063;28;20539;-71
2021/09/11 01:02:21;;;;;;;31.60;29.70;;;20.50;77.90;;;;;;5059632;28;20458;-71
2021/09/11 01:04:48;;;;;;;31.80;29.97;;;20.50;78.10;;;;;;5063070;28;20482;-71
2021/09/11 01:07:16;;;;;;;31.50;29.60;;;20.40;78.30;;;;;;5058665;28;20960;-71
2021/09/11 01:09:43;;;;;;;32.20;30.27;;;20.30;78.60;;;;;;5066358;28;20474;-70
2021/09/11 01:12:11;;;;;;;32.23;30.43;;;20.40;78.60;;;;;;5067756;28;21047;-70
2021/09/11 01:14:38;;;;;;;31.97;30.17;;;20.40;78.50;;;;;;5064192;28;20889;-71
2021/09/11 01:17:05;;;;;;;31.40;29.60;;;20.40;78.20;;;;;;5066666;28;20931;-70
2021/09/11 01:19:32;;;;;;;32.60;30.60;;;20.40;78.40;;;;;;5067868;28;20993;-70
2021/09/11 01:21:59;;;;;;;31.40;29.37;;;20.40;78.70;;;;;;5070665;28;20458;-71
2021/09/11 01:24:27;;;;;;;31.17;29.30;;;20.40;78.60;;;;;;5063790;28;21078;-70
2021/09/11 01:26:54;;;;;;;31.33;29.53;;;20.40;78.60;;;;;;5068322;28;20454;-70
2021/09/11 01:29:21;;;;;;;30.80;29.00;;;20.40;79.00;;;;;;5065943;28;20470;-70
2021/09/11 01:31:48;;;;;;;31.03;29.13;;;20.40;79.10;;;;;;5070987;28;20537;-70
2021/09/11 01:34:15;;;;;;;31.70;29.90;;;20.40;79.00;;;;;;5063482;28;20576;-70
2021/09/11 01:36:41;;;;;;;30.60;28.60;;;20.40;78.90;;;;;;5073713;28;20497;-70
2021/09/11 01:39:08;;;;;;;30.53;28.80;;;20.30;79.30;;;;;;5068900;28;20478;-70
2021/09/11 01:41:36;;;;;;;30.43;28.50;;;20.30;79.40;;;;;;5066071;28;20455;-70
2021/09/11 01:44:04;;;;;;;29.17;27.50;;;20.30;79.60;;;;;;5060857;28;20513;-70
2021/09/11 01:46:31;;;;;;;30.13;28.40;;;20.30;79.70;;;;;;5067553;28;20468;-70
2021/09/11 01:48:58;;;;;;;29.47;27.67;;;20.30;79.90;;;;;;5064019;28;20500;-71
2021/09/11 01:51:24;;;;;;;29.20;27.60;;;20.30;80.10;;;;;;5070186;28;20481;-71
2021/09/11 01:53:51;;;;;;;30.03;28.33;;;20.20;80.20;;;;;;5063551;28;20837;-70
2021/09/11 01:56:18;;;;;;;30.20;28.30;;;20.20;80.30;;;;;;5066285;28;20462;-70
2021/09/11 01:58:46;;;;;;;29.83;28.13;;;20.20;80.30;;;;;;5065673;28;20496;-71
2021/09/11 02:01:13;;;;;;;30.20;28.40;;;20.20;80.50;;;;;;5063747;28;20468;-70
2021/09/11 02:03:40;;;;;;;29.60;27.90;;;20.20;80.50;;;;;;5065998;28;20485;-70
2021/09/11 02:06:07;;;;;;;29.70;27.90;;;20.10;80.70;;;;;;5068194;28;20461;-70
2021/09/11 02:08:34;;;;;;;31.50;29.70;;;20.10;80.80;;;;;;5064663;28;20480;-71
2021/09/11 02:11:00;;;;;;;29.43;27.73;;;20.10;81.00;;;;;;5066309;28;20976;-70
2021/09/11 02:13:27;;;;;;;29.70;28.00;;;20.10;80.80;;;;;;5066849;28;20466;-70
2021/09/11 02:15:59;;;;;;;29.83;28.03;;;20.10;80.90;;;;;;5065856;28;20816;-70
2021/09/11 02:18:26;;;;;;;29.80;28.00;;;20.10;80.80;;;;;;5068136;28;20470;-70
2021/09/11 02:20:55;;;;;;;30.30;28.50;;;20.10;80.90;;;;;;5065355;28;20465;-71
2021/09/11 02:23:22;;;;;;;28.60;27.00;;;20.10;80.90;;;;;;5067391;28;20516;-70
2021/09/11 02:25:51;;;;;;;29.87;28.07;;;20.10;81.10;;;;;;5065226;28;20488;-70
2021/09/11 02:28:18;;;;;;;29.10;27.40;;;20.00;81.30;;;;;;5067179;28;20496;-70
2021/09/11 02:30:45;;;;;;;29.70;27.83;;;20.00;81.40;;;;;;5068376;28;20588;-70
2021/09/11 02:33:13;;;;;;;30.00;28.20;;;20.00;81.30;;;;;;5069167;28;20890;-70
2021/09/11 02:35:40;;;;;;;30.20;28.33;;;20.10;81.30;;;;;;5066404;28;20458;-70
2021/09/11 02:38:07;;;;;;;28.87;27.17;;;20.10;81.30;;;;;;5064513;28;20474;-70
2021/09/11 02:40:34;;;;;;;29.43;27.67;;;20.10;81.10;;;;;;5061370;28;20455;-70
2021/09/11 02:43:01;;;;;;;29.20;27.50;;;20.00;81.20;;;;;;5066431;28;20458;-70
2021/09/11 02:45:28;;;;;;;29.40;27.37;;;20.00;81.40;;;;;;5064811;28;20478;-70
2021/09/11 02:47:54;;;;;;;29.27;27.60;;;20.00;81.40;;;;;;5061495;28;20549;-70
2021/09/11 02:50:24;;;;;;;30.70;28.90;;;20.00;81.50;;;;;;5067706;28;20561;-70
2021/09/11 02:52:51;;;;;;;29.10;27.30;;;20.10;81.40;;;;;;5065749;28;20465;-70
2021/09/11 02:55:18;;;;;;;29.90;28.07;;;20.10;81.40;;;;;;5063899;28;20458;-70
2021/09/11 02:57:45;;;;;;;29.70;27.90;;;20.10;81.60;;;;;;5067792;28;20462;-70
2021/09/11 03:00:12;;;;;;;29.23;27.53;;;20.10;81.70;;;;;;5067928;28;20478;-70
2021/09/11 03:02:39;;;;;;;28.93;27.23;;;20.10;81.60;;;;;;5063666;28;20952;-70
2021/09/11 03:05:07;;;;;;;28.70;27.10;;;20.10;81.90;;;;;;5062715;28;20480;-70
2021/09/11 03:07:35;;;;;;;29.87;28.07;;;20.00;82.20;;;;;;5067214;28;20462;-70
2021/09/11 03:10:02;;;;;;;31.90;30.00;;;20.00;82.10;;;;;;5069257;28;20565;-70
2021/09/11 03:12:29;;;;;;;28.90;27.03;;;20.00;81.90;;;;;;5068739;28;20464;-70
2021/09/11 03:14:56;;;;;;;30.47;28.50;;;20.10;81.60;;;;;;5061054;28;20546;-70
2021/09/11 03:17:23;;;;;;;30.37;28.57;;;20.10;81.80;;;;;;5065082;28;20462;-70
2021/09/11 03:19:50;;;;;;;29.83;28.03;;;20.00;82.00;;;;;;5065514;28;20492;-70
2021/09/11 03:22:17;;;;;;;29.90;28.10;;;19.90;82.30;;;;;;5063809;28;20462;-70
2021/09/11 03:24:45;;;;;;;29.47;27.67;;;20.00;82.20;;;;;;5063860;28;20478;-70
2021/09/11 03:27:12;;;;;;;30.93;29.03;;;20.00;82.10;;;;;;5067400;28;21023;-70
2021/09/11 03:29:39;;;;;;;29.33;27.63;;;20.00;82.00;;;;;;5066023;28;20988;-70
2021/09/11 03:32:07;;;;;;;30.47;28.67;;;20.00;82.10;;;;;;5065710;28;20458;-70
2021/09/11 03:34:34;;;;;;;31.00;28.90;;;20.00;82.20;;;;;;5068360;28;20465;-70
2021/09/11 03:37:02;;;;;;;30.67;28.50;;;19.90;82.10;;;;;;5067091;28;20458;-70
2021/09/11 03:39:29;;;;;;;29.40;27.60;;;19.90;82.30;;;;;;5066706;28;20543;-70
2021/09/11 03:41:58;;;;;;;31.00;29.20;;;19.90;82.30;;;;;;5065203;28;20450;-70
2021/09/11 03:44:25;;;;;;;31.20;29.40;;;19.90;82.40;;;;;;5064322;28;20474;-70
2021/09/11 03:46:51;;;;;;;29.10;27.30;;;19.80;82.50;;;;;;5067484;28;20485;-70
2021/09/11 03:49:18;;;;;;;30.70;28.53;;;19.80;82.40;;;;;;5067793;28;20481;-71
2021/09/11 03:51:45;;;;;;;29.73;28.03;;;19.90;82.30;;;;;;5068199;28;20477;-71
2021/09/11 03:54:12;;;;;;;30.40;28.60;;;19.90;82.20;;;;;;5060722;28;20455;-70
2021/09/11 03:56:39;;;;;;;30.43;28.67;;;19.90;82.10;;;;;;5063823;28;20470;-70
2021/09/11 03:59:07;;;;;;;30.13;28.43;;;19.90;82.10;;;;;;5056169;28;20999;-70
2021/09/11 04:01:34;;;;;;;29.50;27.73;;;19.90;82.10;;;;;;5066134;28;20545;-70
2021/09/11 04:04:01;;;;;;;30.57;28.77;;;19.90;82.20;;;;;;5072556;28;20540;-70
2021/09/11 04:06:28;;;;;;;32.60;30.60;;;19.90;82.20;;;;;;5061495;28;20968;-70
2021/09/11 04:08:55;;;;;;;30.83;28.90;;;19.90;82.10;;;;;;5058547;28;20474;-70
2021/09/11 04:11:22;;;;;;;30.67;28.57;;;19.90;82.30;;;;;;5067064;28;20438;-70
2021/09/11 04:13:49;;;;;;;29.53;27.83;;;19.80;82.60;;;;;;5059968;28;20470;-70
2021/09/11 04:16:17;;;;;;;29.07;27.37;;;19.90;82.50;;;;;;5061078;28;20451;-70
2021/09/11 04:18:44;;;;;;;30.87;29.07;;;19.90;82.20;;;;;;5067335;28;20902;-70
2021/09/11 04:21:11;;;;;;;30.93;29.03;;;19.90;82.20;;;;;;5065512;28;20549;-70
2021/09/11 04:23:38;;;;;;;29.70;28.10;;;19.90;82.30;;;;;;5063771;28;20477;-70
2021/09/11 04:26:05;;;;;;;31.47;29.33;;;19.80;82.50;;;;;;5063398;28;20474;-70
2021/09/11 04:28:31;;;;;;;30.30;28.50;;;19.80;82.50;;;;;;5062735;28;20572;-70
2021/09/11 04:30:58;;;;;;;31.40;29.60;;;19.80;82.70;;;;;;5067028;28;20541;-70
2021/09/11 04:33:27;;;;;;;34.23;32.27;;;19.80;82.70;;;;;;5065586;28;20447;-70
2021/09/11 04:35:54;;;;;;;31.50;29.60;;;19.80;82.80;;;;;;5065762;28;20801;-70
2021/09/11 04:38:21;;;;;;;30.17;28.30;;;19.90;82.70;;;;;;5069441;28;20493;-70
2021/09/11 04:40:48;;;;;;;31.97;30.17;;;19.80;82.80;;;;;;5066463;28;20541;-70
2021/09/11 04:43:15;;;;;;;30.80;28.90;;;19.80;82.90;;;;;;5070426;28;20546;-70
2021/09/11 04:45:44;;;;;;;30.40;28.70;;;19.80;83.10;;;;;;5069374;28;20473;-71
2021/09/11 04:48:10;;;;;;;29.27;27.57;;;19.80;83.10;;;;;;5071662;28;20586;-71
2021/09/11 04:50:39;;;;;;;29.87;28.10;;;19.70;83.20;;;;;;5071332;28;20468;-71
2021/09/11 04:53:06;;;;;;;29.17;27.57;;;19.70;83.50;;;;;;5062956;28;20454;-71
2021/09/11 04:55:32;;;;;;;30.17;28.57;;;19.80;83.30;;;;;;5067739;28;20545;-71
2021/09/11 04:57:59;;;;;;;29.33;27.50;;;19.80;83.30;;;;;;5067047;28;20553;-71
2021/09/11 05:00:26;;;;;;;28.40;26.80;;;19.80;83.20;;;;;;5074675;28;20548;-71
2021/09/11 05:02:53;;;;;;;27.17;25.57;;;19.80;83.20;;;;;;5069204;28;20453;-71
2021/09/11 05:05:20;;;;;;;28.10;26.50;;;19.90;83.10;;;;;;5076345;28;20473;-71
2021/09/11 05:07:49;;;;;;;29.17;27.57;;;19.90;83.10;;;;;;5066431;28;20462;-70
2021/09/11 05:10:16;;;;;;;29.60;28.00;;;19.90;83.10;;;;;;5065608;28;20481;-70
2021/09/11 05:12:42;;;;;;;26.67;25.27;;;19.90;83.00;;;;;;5068738;28;20464;-70
2021/09/11 05:15:11;;;;;;;27.70;26.20;;;19.90;83.10;;;;;;5066696;28;20483;-70
2021/09/11 05:17:38;;;;;;;26.67;25.27;;;19.90;83.30;;;;;;5070364;28;20454;-70
2021/09/11 05:20:06;;;;;;;27.30;25.60;;;19.80;83.40;;;;;;5076428;28;21182;-70
2021/09/11 05:22:33;;;;;;;28.03;26.10;;;19.90;83.40;;;;;;5067727;28;20464;-70
2021/09/11 05:25:01;;;;;;;26.50;25.10;;;19.90;83.30;;;;;;5067841;28;21170;-70
2021/09/11 05:27:28;;;;;;;26.97;25.57;;;19.90;83.40;;;;;;5067845;28;20541;-70
2021/09/11 05:29:55;;;;;;;29.03;27.53;;;19.80;83.50;;;;;;5069890;28;20478;-70
2021/09/11 05:32:22;;;;;;;30.07;28.47;;;19.80;83.60;;;;;;5068907;28;20450;-70
2021/09/11 05:34:48;;;;;;;28.53;27.00;;;19.90;83.50;;;;;;5069771;28;20643;-70
2021/09/11 05:37:15;;;;;;;28.63;27.00;;;19.90;83.70;;;;;;5067951;28;20450;-71
2021/09/11 05:39:42;;;;;;;32.50;30.40;;;19.80;83.90;;;;;;5060849;28;20492;-71
2021/09/11 05:42:11;;;;;;;28.90;27.40;;;19.90;83.90;;;;;;5064480;28;20933;-71
2021/09/11 05:44:38;;;;;;;30.53;28.87;;;19.90;83.70;;;;;;5067124;28;20450;-72
2021/09/11 05:47:06;;;;;;;27.00;25.10;;;19.90;83.80;;;;;;5069095;28;20593;-71
2021/09/11 05:49:33;;;;;;;28.13;26.20;;;19.90;83.80;;;;;;5069989;28;20520;-71
2021/09/11 05:52:00;;;;;;;29.63;27.17;;;19.90;83.90;;;;;;5065003;28;20465;-71
2021/09/11 05:54:27;;;;;;;30.40;28.23;;;19.90;84.50;;;;;;5071928;28;20462;-71
2021/09/11 05:56:54;;;;;;;29.50;26.90;;;19.90;84.20;;;;;;5070257;28;20495;-71
2021/09/11 05:59:22;;;;;;;30.87;28.87;;;19.90;84.20;;;;;;5074528;28;20502;-71
2021/09/11 06:01:49;;;;;;;28.70;27.00;;;19.90;84.00;;;;;;5069312;28;20553;-71
2021/09/11 06:04:16;;;;;;;27.20;25.40;;;19.90;83.80;;;;;;5073122;28;20533;-71
2021/09/11 06:06:43;;;;;;;28.07;26.23;;;19.90;84.00;;;;;;5069788;28;21040;-71
2021/09/11 06:09:10;;;;;;;27.40;25.60;;;20.00;83.90;;;;;;5062008;28;20568;-73
2021/09/11 06:11:37;;;;;;;27.40;25.80;;;19.90;84.00;;;;;;5068501;28;20465;-70
2021/09/11 06:14:04;;;;;;;27.23;25.83;;;20.00;84.10;;;;;;5067852;28;20454;-72
2021/09/11 06:16:32;;;;;;;32.63;30.03;;;20.10;83.70;;;;;;5065496;28;20525;-70
2021/09/11 06:18:59;;;;;;;27.93;26.33;;;20.10;83.50;;;;;;5069080;28;20497;-71
2021/09/11 06:21:26;;;;;;;27.70;25.90;;;20.10;83.30;;;;;;5068042;28;20458;-72
2021/09/11 06:23:53;;;;;;;29.53;27.73;;;20.10;83.40;;;;;;5064458;28;20508;-72
2021/09/11 06:26:20;;;;;;;30.33;28.37;;;20.30;83.00;;;;;;5068772;28;20831;-71
2021/09/11 06:28:47;;;;;;;27.83;26.13;;;20.30;83.00;;;;;;5070516;28;20470;-72
2021/09/11 06:31:14;;;;;;;28.73;27.20;;;20.30;82.80;;;;;;5060539;28;20454;-71
2021/09/11 06:33:42;;;;;;;28.27;26.33;;;20.50;82.40;;;;;;5070207;28;20450;-71
2021/09/11 06:36:12;;;;;;;34.60;32.20;;;20.60;82.30;;;;;;5067431;28;20455;-70
2021/09/11 06:38:39;;;;;;;27.37;25.80;;;20.60;82.10;;;;;;5066411;28;20474;-71
2021/09/11 06:41:06;;;;;;;26.93;25.23;;;20.70;81.80;;;;;;5068513;28;20460;-71
2021/09/11 06:43:33;;;;;;;27.30;25.60;;;20.90;81.50;;;;;;5074984;28;20449;-71
2021/09/11 06:46:00;;;;;;;29.97;27.97;;;21.10;81.00;;;;;;5068570;28;20478;-71
2021/09/11 06:48:27;;;;;;;26.83;25.20;;;21.20;80.40;;;;;;5072045;28;20450;-71
2021/09/11 06:50:55;;;;;;;27.40;25.80;;;21.40;79.50;;;;;;5068926;28;21031;-71
2021/09/11 06:53:22;;;;;;;26.30;24.80;;;21.50;79.40;;;;;;5065767;28;20958;-70
2021/09/11 06:55:50;;;;;;;28.30;26.60;;;21.60;78.90;;;;;;5068615;28;20450;-70
2021/09/11 06:58:17;;;;;;;29.97;28.07;;;21.60;78.80;;;;;;5069436;28;20494;-69
2021/09/11 07:00:44;;;;;;;26.53;25.03;;;21.80;78.50;;;;;;5067536;28;20462;-69
2021/09/11 07:03:11;;;;;;;27.70;26.20;;;22.00;77.90;;;;;;5067444;28;20468;-70
2021/09/11 07:05:38;;;;;;;26.20;24.80;;;22.00;77.40;;;;;;5072816;28;20987;-70
2021/09/11 07:08:06;;;;;;;27.97;26.23;;;22.10;77.10;;;;;;5067810;28;20467;-69
2021/09/11 07:10:33;;;;;;;27.00;25.50;;;22.20;76.70;;;;;;5065466;28;20474;-71
2021/09/11 07:13:01;;;;;;;29.37;27.77;;;22.30;76.30;;;;;;5061605;28;20949;-71
2021/09/11 07:15:27;;;;;;;27.50;25.90;;;22.40;76.20;;;;;;5067903;28;20460;-70
2021/09/11 07:17:55;;;;;;;26.77;25.27;;;22.40;76.20;;;;;;5066743;28;20461;-70
2021/09/11 07:20:24;;;;;;;27.10;25.60;;;22.50;76.00;;;;;;5072916;28;20516;-73
2021/09/11 07:22:51;;;;;;;26.67;25.17;;;22.50;75.90;;;;;;5067021;28;20459;-74
2021/09/11 07:25:20;;;;;;;27.27;25.67;;;22.70;75.30;;;;;;5066857;28;20581;-71
2021/09/11 07:27:47;;;;;;;27.53;25.77;;;22.80;75.30;;;;;;5067994;28;20530;-72
2021/09/11 07:30:15;;;;;;;26.73;25.13;;;22.90;74.90;;;;;;5069235;28;20478;-71
2021/09/11 07:32:42;;;;;;;26.70;25.20;;;23.10;74.80;;;;;;5070422;28;20488;-71
2021/09/11 07:35:09;;;;;;;29.67;27.20;;;23.20;74.10;;;;;;5066984;28;20450;-71
2021/09/11 07:37:37;;;;;;;26.73;25.33;;;23.30;74.10;;;;;;5065163;28;20469;-70
2021/09/11 07:40:05;;;;;;;27.67;26.17;;;23.50;73.00;;;;;;5069124;28;21018;-70
2021/09/11 07:42:33;;;;;;;26.97;25.43;;;23.50;72.80;;;;;;5066128;28;20454;-72
2021/09/11 07:45:00;;;;;;;28.97;27.37;;;23.50;72.90;;;;;;5063939;28;20462;-71
2021/09/11 07:47:27;;;;;;;29.57;27.80;;;23.60;72.60;;;;;;5060686;28;20458;-71
2021/09/11 07:49:54;;;;;;;27.13;25.43;;;23.70;72.40;;;;;;5065586;28;20489;-70
2021/09/11 07:52:20;;;;;;;26.20;24.70;;;23.90;72.20;;;;;;5061895;28;20475;-70
2021/09/11 07:54:47;;;;;;;27.40;25.80;;;24.00;71.40;;;;;;5071880;28;20531;-70
2021/09/11 07:57:14;;;;;;;29.03;27.33;;;24.00;71.30;;;;;;5066140;28;20438;-70
2021/09/11 07:59:42;;;;;;;26.80;25.30;;;24.00;71.50;;;;;;5067105;28;21034;-70
2021/09/11 08:02:09;;;;;;;27.23;25.70;;;24.20;71.20;;;;;;5066617;28;20558;-70
2021/09/11 08:04:36;;;;;;;27.50;26.10;;;24.20;71.10;;;;;;5070073;28;20955;-70
2021/09/11 08:07:03;;;;;;;26.10;24.70;;;24.30;71.00;;;;;;5065876;28;20474;-70
2021/09/11 08:09:30;;;;;;;27.20;25.70;;;24.30;70.50;;;;;;5060750;28;20596;-70
2021/09/11 08:11:57;;;;;;;26.20;24.80;;;24.40;70.20;;;;;;5063018;28;20548;-71
2021/09/11 08:14:25;;;;;;;26.50;24.70;;;24.50;70.00;;;;;;5064424;28;20534;-70
2021/09/11 08:16:53;;;;;;;27.13;25.63;;;24.60;69.80;;;;;;5066199;28;20451;-70
2021/09/11 08:19:20;;;;;;;28.73;27.20;;;24.60;69.50;;;;;;5065895;28;20513;-70
2021/09/11 08:21:47;;;;;;;27.13;25.73;;;24.70;69.70;;;;;;5070537;28;20454;-70
2021/09/11 08:24:14;;;;;;;27.90;26.40;;;24.70;69.30;;;;;;5070284;28;20557;-70
2021/09/11 08:26:41;;;;;;;27.40;25.70;;;24.70;69.40;;;;;;5071223;28;20477;-71
2021/09/11 08:29:08;;;;;;;28.70;27.00;;;24.90;68.90;;;;;;5070406;28;20473;-71
2021/09/11 08:31:35;;;;;;;28.00;26.40;;;24.80;69.10;;;;;;5069741;28;20460;-70
2021/09/11 08:34:03;;;;;;;28.10;26.60;;;24.90;68.80;;;;;;5073091;28;20464;-70
2021/09/11 08:36:30;;;;;;;27.50;26.10;;;24.90;68.60;;;;;;5070523;28;20985;-71
2021/09/11 08:38:57;;;;;;;27.00;25.60;;;25.00;68.60;;;;;;5070308;28;20476;-70
2021/09/11 08:41:27;;;;;;;28.00;26.50;;;25.20;68.40;;;;;;5070282;28;20477;-70
2021/09/11 08:43:55;;;;;;;28.33;26.73;;;25.30;68.20;;;;;;5068797;28;20478;-70
2021/09/11 08:46:25;;;;;;;28.27;26.67;;;25.50;67.00;;;;;;5067634;28;20610;-70
2021/09/11 08:48:52;;;;;;;29.13;27.60;;;25.40;66.90;;;;;;5073227;28;20906;-70
2021/09/11 08:51:20;;;;;;;27.20;25.80;;;25.40;67.10;;;;;;5069374;28;20768;-70
2021/09/11 08:53:47;;;;;;;28.63;27.13;;;25.50;66.70;;;;;;5070423;28;20456;-70
2021/09/11 08:56:14;;;;;;;27.10;25.60;;;25.50;66.70;;;;;;5056973;28;20814;-70
2021/09/11 08:58:41;;;;;;;28.00;26.40;;;25.50;66.30;;;;;;5065711;28;20473;-70
2021/09/11 09:01:09;;;;;;;28.50;26.70;;;25.50;66.80;;;;;;5068039;28;20457;-71
2021/09/11 09:03:37;;;;;;;28.57;27.17;;;25.50;66.70;;;;;;5071239;28;20496;-71
2021/09/11 09:06:17;;;;;;;26.80;25.30;;;25.50;66.70;;;;;;5068049;28;20485;-70
2021/09/11 09:08:47;;;;;;;26.07;24.67;;;25.50;66.40;;;;;;5063520;28;20474;-70
2021/09/11 09:11:23;;;;;;;29.67;27.87;;;25.60;66.20;;;;;;5066682;28;20771;-70
2021/09/11 09:13:55;;;;;;;28.70;27.20;;;25.80;65.70;;;;;;5067201;28;20789;-70
2021/09/11 09:16:23;;;;;;;29.27;27.67;;;25.90;65.50;;;;;;5067347;28;20547;-70
2021/09/11 09:18:50;;;;;;;28.67;27.07;;;25.90;65.10;;;;;;5067612;28;21013;-72
2021/09/11 09:21:23;;;;;;;27.83;26.27;;;25.90;64.20;;;;;;5069044;28;20882;-72
2021/09/11 09:23:53;;;;;;;27.37;25.97;;;25.70;64.90;;;;;;5065276;28;20460;-72
2021/09/11 09:26:21;;;;;;;26.73;25.33;;;25.60;65.20;;;;;;5067889;28;20990;-72
2021/09/11 09:29:02;;;;;;;27.40;25.80;;;25.70;64.60;;;;;;5074816;28;21028;-72
2021/09/11 09:31:29;;;;;;;26.70;25.30;;;25.60;64.40;;;;;;5066390;28;20454;-72
2021/09/11 09:33:56;;;;;;;28.87;27.17;;;25.60;65.00;;;;;;5071093;28;20458;-75
2021/09/11 09:36:28;;;;;;;29.17;27.57;;;25.60;65.70;;;;;;5070902;28;20462;-72
2021/09/11 09:39:05;;;;;;;26.80;25.30;;;25.70;65.00;;;;;;5064327;28;20839;-72
2021/09/11 09:41:46;;;;;;;28.27;26.67;;;25.80;63.90;;;;;;5065730;28;20454;-72
2021/09/11 09:44:15;;;;;;;27.83;26.13;;;25.90;64.10;;;;;;5066649;28;20454;-72
2021/09/11 09:46:43;;;;;;;29.13;27.53;;;25.70;64.60;;;;;;5068046;28;20470;-72
2021/09/11 09:49:11;;;;;;;28.70;26.90;;;25.50;65.20;;;;;;5067217;28;20581;-72
2021/09/11 09:51:38;;;;;;;29.03;27.23;;;25.20;65.80;;;;;;5069158;28;20556;-72
2021/09/11 09:54:06;;;;;;;28.13;26.53;;;25.30;65.40;;;;;;5077082;28;20457;-72
2021/09/11 09:56:34;;;;;;;27.93;26.37;;;25.50;65.50;;;;;;5068135;28;21038;-72
2021/09/11 09:59:02;;;;;;;27.63;26.03;;;25.70;65.30;;;;;;5073343;28;20674;-73
2021/09/11 10:01:29;;;;;;;28.80;27.00;;;25.90;65.00;;;;;;5067154;28;20544;-72
2021/09/11 10:03:56;;;;;;;29.73;27.93;;;26.00;63.90;;;;;;5065945;28;20790;-72
2021/09/11 10:06:27;;;;;;;28.47;26.90;;;25.90;64.40;;;;;;5065596;28;20565;-73
2021/09/11 10:08:59;;;;;;;29.57;27.87;;;25.90;64.90;;;;;;5072943;28;20485;-72
2021/09/11 10:11:38;;;;;;;27.70;26.10;;;25.90;65.20;;;;;;5065449;28;20464;-72
2021/09/11 10:14:10;;;;;;;30.97;29.17;;;25.90;65.00;;;;;;5068863;28;20744;-72
2021/09/11 10:16:38;;;;;;;30.20;28.50;;;25.80;64.70;;;;;;5061071;28;20476;-72
2021/09/11 10:19:17;;;;;;;35.97;33.67;;;25.60;65.40;;;;;;5067882;28;21016;-72
2021/09/11 10:21:44;;;;;;;34.20;32.23;;;25.70;66.00;;;;;;5065827;28;20828;-73
2021/09/11 10:24:34;;;;;;;30.53;28.60;;;25.80;65.50;;;;;;5066351;28;20458;-72
2021/09/11 10:27:12;;;;;;;29.00;27.30;;;26.10;64.40;;;;;;5065645;28;20485;-72
2021/09/11 10:29:43;;;;;;;27.70;26.20;;;26.30;64.10;;;;;;5063616;28;22792;-72
2021/09/11 10:32:15;;;;;;;28.40;26.80;;;26.10;64.60;;;;;;5065243;28;20553;-72
2021/09/11 10:34:51;;;;;;;29.50;27.80;;;26.00;65.00;;;;;;5064144;28;20454;-74
2021/09/11 10:37:26;;;;;;;31.10;29.30;;;26.10;65.20;;;;;;5065277;28;20503;-73
2021/09/11 10:40:19;;;;;;;29.50;27.90;;;26.30;64.70;;;;;;5063292;28;20492;-73
2021/09/11 10:43:15;;;;;;;30.17;28.57;;;26.40;63.40;;;;;;5067969;28;20480;-72
2021/09/11 10:45:47;;;;;;;31.97;30.10;;;26.60;62.30;;;;;;5070977;28;20457;-72
2021/09/11 10:48:32;;;;;;;29.80;28.20;;;26.70;62.20;;;;;;5069887;28;20501;-72
2021/09/11 10:51:12;;;;;;;32.50;30.70;;;26.60;62.10;;;;;;5066972;28;21141;-72
2021/09/11 10:53:39;;;;;;;31.93;30.17;;;26.70;62.10;;;;;;5062170;28;20461;-72
2021/09/11 10:56:26;;;;;;;30.23;28.60;;;26.80;61.90;;;;;;5063326;28;20470;-72
2021/09/11 10:59:42;;;;;;;30.47;28.77;;;27.10;60.70;;;;;;5069591;28;20472;-72
2021/09/11 11:02:23;;;;;;;30.33;28.67;;;27.10;60.00;;;;;;5065949;28;20442;-72
2021/09/11 11:04:58;;;;;;;29.53;27.93;;;27.00;60.80;;;;;;5060405;28;20453;-72
2021/09/11 11:07:27;;;;;;;29.87;28.27;;;26.90;60.70;;;;;;5072206;28;20666;-72
2021/09/11 11:09:56;;;;;;;29.57;27.90;;;26.60;61.30;;;;;;5069972;28;20474;-72
2021/09/11 11:12:25;;;;;;;29.50;27.80;;;26.50;61.70;;;;;;5067247;28;20512;-72
2021/09/11 11:14:58;;;;;;;28.97;27.27;;;26.40;62.00;;;;;;5062569;28;20462;-74
2021/09/11 11:17:27;;;;;;;28.80;27.20;;;26.20;63.20;;;;;;5067404;28;20446;-74
2021/09/11 11:19:55;;;;;;;30.50;28.80;;;25.90;64.10;;;;;;5067345;28;20474;-73
2021/09/11 11:22:31;;;;;;;28.97;27.37;;;25.40;66.30;;;;;;5059085;28;21155;-72
2021/09/11 11:24:58;;;;;;;29.20;27.53;;;24.10;72.30;;;;;;5064187;28;21124;-72
2021/09/11 11:27:28;;;;;;;29.67;28.07;;;23.60;75.40;;;;;;5061752;28;20847;-70
2021/09/11 11:29:56;;;;;;;27.53;25.77;;;23.20;77.00;;;;;;5062787;28;21072;-70
2021/09/11 11:32:27;;;;;;;31.17;29.37;;;22.30;76.60;;;;;;5070808;28;20541;-70
2021/09/11 11:34:59;;;;;;;30.77;28.80;;;21.60;81.80;;;;;;5069465;28;20555;-71
2021/09/11 11:37:27;;;;;;;27.17;25.70;;;21.50;83.30;;;;;;5067099;28;20550;-71
2021/09/11 11:39:58;;;;;;;27.90;26.20;;;21.60;82.40;;;;;;5065873;28;20488;-71
2021/09/11 11:42:27;;;;;;;33.50;31.20;;;21.60;83.00;;;;;;5067657;28;20473;-71
2021/09/11 11:44:55;;;;;;;27.70;26.13;;;21.90;83.40;;;;;;5065712;28;20556;-71
2021/09/11 11:47:50;;;;;;;31.53;29.33;;;22.20;82.60;;;;;;5067216;28;20470;-70
2021/09/11 11:50:19;;;;;;;27.50;25.87;;;22.40;82.10;;;;;;5073269;28;20576;-71
2021/09/11 11:52:52;;;;;;;27.03;25.53;;;22.70;81.80;;;;;;5067347;28;20485;-71
2021/09/11 11:55:22;;;;;;;28.87;27.07;;;23.10;80.70;;;;;;5071281;28;20462;-70
2021/09/11 11:57:48;;;;;;;28.93;26.83;;;23.50;80.00;;;;;;5067177;28;20564;-70
2021/09/11 12:00:17;;;;;;;28.70;26.37;;;23.90;79.80;;;;;;5066958;28;20574;-70
2021/09/11 12:02:49;;;;;;;28.80;26.93;;;24.10;78.90;;;;;;5068165;28;20442;-71
2021/09/11 12:05:18;;;;;;;28.57;26.67;;;24.40;76.90;;;;;;5066013;28;20492;-70
2021/09/11 12:07:57;;;;;;;27.47;25.60;;;24.80;76.40;;;;;;5068058;28;20527;-71
2021/09/11 12:10:26;;;;;;;27.03;25.43;;;25.10;75.00;;;;;;5067261;28;20470;-71
2021/09/11 12:12:54;;;;;;;26.70;25.20;;;25.30;73.50;;;;;;5067060;28;20462;-71
2021/09/11 12:15:22;;;;;;;27.10;25.30;;;25.50;73.40;;;;;;5064754;28;20446;-71
2021/09/11 12:17:59;;;;;;;30.60;28.60;;;25.60;73.70;;;;;;5066297;28;20464;-71
2021/09/11 12:20:27;;;;;;;30.10;28.30;;;25.80;73.40;;;;;;5065939;28;20820;-71
2021/09/11 12:23:12;;;;;;;26.83;25.40;;;25.80;70.90;;;;;;5066899;28;20759;-71
2021/09/11 12:26:00;;;;;;;30.10;28.40;;;26.00;70.60;;;;;;5058318;28;20758;-71
2021/09/11 12:28:47;;;;;;;28.30;26.70;;;26.10;70.40;;;;;;5069732;28;20473;-71
2021/09/11 12:31:24;;;;;;;28.27;26.67;;;26.20;69.90;;;;;;5071686;28;20471;-70
2021/09/11 12:33:53;;;;;;;27.80;26.30;;;26.20;69.90;;;;;;5061268;28;21020;-71
2021/09/11 12:36:46;;;;;;;26.93;25.43;;;26.20;69.30;;;;;;5066475;28;20469;-71